Weather reports worldwide

Advertisment
Edinburgh, United Kingdom (3160): temperature & dewpoint: 22.01.2020 06:00:00 - 28.01.2020 06:00:00 (GMT)Edinburgh, United Kingdom (3160): wind speed: 22.01.2020 06:00:00 - 28.01.2020 06:00:00 (GMT)Edinburgh, United Kingdom (3160): wind direction: 22.01.2020 06:00:00 - 28.01.2020 06:00:00 (GMT)Edinburgh, United Kingdom (3160): visibility: 22.01.2020 06:00:00 - 28.01.2020 06:00:00 (GMT)
Date & Time tt [°C] td [°C] ff [km/h] ff [kn] dd vv [km]
28.01.2020 06:00:00 1,0 1,0 18 10 WSW 10
28.01.2020 05:00:00 1,0 1,0 18 10 WSW 10
28.01.2020 04:00:00 2,0 1,0 15 8 WSW 10
28.01.2020 03:00:00 1,0 1,0 9 5 WSW 10
28.01.2020 02:00:00 1,0 1,0 4 2 WSW 10
28.01.2020 01:00:00 1,0 1,0 4 2 - 9
28.01.2020 00:00:00 2,0 1,0 8 4 NNE 7
27.01.2020 23:00:00 3,0 1,0 11 6 SSE 7
27.01.2020 22:00:00 3,0 0,0 9 5 E 10
27.01.2020 21:00:00 0,0 -1,0 11 6 ENE 10
27.01.2020 20:00:00 -1,0 -2,0 11 6 ENE 10
27.01.2020 19:00:00 2,0 -1,0 9 5 SW 10
27.01.2020 18:00:00 3,0 -1,0 8 4 S 10
27.01.2020 17:00:00 3,0 -1,0 9 5 WSW 10
27.01.2020 16:00:00 4,0 0,0 11 6 WSW 10
27.01.2020 15:00:00 5,0 0,0 26 14 WSW 10
27.01.2020 14:00:00 5,0 0,0 28 15 WSW 10
27.01.2020 13:00:00 6,0 0,0 24 13 SW 10
27.01.2020 12:00:00 5,0 0,0 37 20 SW 10
27.01.2020 11:00:00 4,0 0,0 28 15 SSW 10
27.01.2020 10:00:00 4,0 -1,0 35 19 SSW 10
27.01.2020 09:00:00 3,0 0,0 28 15 SSW 10
27.01.2020 08:00:00 3,0 0,0 24 13 SW 10
27.01.2020 07:00:00 4,0 1,0 26 14 SW 10
27.01.2020 06:00:00 4,0 2,0 21 11 SW 10
27.01.2020 05:00:00 4,0 1,0 21 11 SSW 10
27.01.2020 04:00:00 4,0 2,0 22 12 SSW 10
27.01.2020 03:00:00 3,0 2,0 22 12 S 10
27.01.2020 02:00:00 4,0 1,0 21 11 S 10
27.01.2020 01:00:00 3,0 0,0 8 4 S 10
27.01.2020 00:00:00 3,0 0,0 11 6 SSE 10
26.01.2020 23:00:00 2,0 0,0 8 4 SE 10
26.01.2020 22:00:00 3,0 0,0 15 8 S 10
26.01.2020 21:00:00 2,0 0,0 8 4 SSW 10
26.01.2020 20:00:00 1,0 0,0 13 7 WSW 10
26.01.2020 19:00:00 2,0 0,0 9 5 SW 10
26.01.2020 18:00:00 3,0 1,0 11 6 SW 10
26.01.2020 17:00:00 4,0 2,0 18 10 SW 10
26.01.2020 16:00:00 4,0 2,0 18 10 WSW 10
26.01.2020 15:00:00 5,0 2,0 22 12 W 10
26.01.2020 14:00:00 7,0 5,0 15 8 WSW 10
26.01.2020 13:00:00 7,0 5,0 15 8 WSW 10
26.01.2020 12:00:00 7,0 6,0 24 13 WSW 10
26.01.2020 11:00:00 9,0 7,0 28 15 SW 10
26.01.2020 10:00:00 8,0 7,0 26 14 SSW 10
26.01.2020 09:00:00 8,0 6,0 28 15 SSW 10
26.01.2020 08:00:00 9,0 6,0 28 15 SSW 10
26.01.2020 07:00:00 8,0 5,0 31 17 SSW 10
26.01.2020 06:00:00 8,0 5,0 15 8 SSW 10
26.01.2020 05:00:00 8,0 5,0 22 12 SSW 10
26.01.2020 04:00:00 7,0 4,0 13 7 S 10
26.01.2020 03:00:00 7,0 4,0 18 10 S 10
26.01.2020 02:00:00 7,0 5,0 21 11 SSW 10
26.01.2020 01:00:00 7,0 5,0 9 5 SW 10
26.01.2020 00:00:00 7,0 5,0 15 8 SSW 10
25.01.2020 23:00:00 6,0 5,0 16 9 SW 10
25.01.2020 22:00:00 7,0 4,0 26 14 SSW 10
25.01.2020 21:00:00 7,0 5,0 26 14 SSW 10
25.01.2020 20:00:00 7,0 5,0 13 7 WSW 10
25.01.2020 19:00:00 7,0 5,0 16 9 WSW 10
25.01.2020 18:00:00 7,0 5,0 18 10 SW 10
25.01.2020 17:00:00 7,0 5,0 21 11 SW 10
25.01.2020 16:00:00 8,0 4,0 22 12 WSW 10
25.01.2020 15:00:00 8,0 5,0 26 14 SW 10
25.01.2020 14:00:00 7,0 5,0 24 13 WSW 10
25.01.2020 13:00:00 7,0 6,0 15 8 WSW 10
25.01.2020 12:00:00 7,0 5,0 13 7 W 10
25.01.2020 11:00:00 7,0 5,0 22 12 SW 10
25.01.2020 10:00:00 7,0 5,0 21 11 SW 10
25.01.2020 09:00:00 7,0 5,0 26 14 WSW 10
25.01.2020 08:00:00 7,0 5,0 16 9 WSW 10
25.01.2020 07:00:00 7,0 5,0 22 12 SW 9
25.01.2020 06:00:00 7,0 5,0 16 9 SW 10
25.01.2020 05:00:00 7,0 6,0 18 10 SW 10
25.01.2020 04:00:00 7,0 6,0 24 13 SW 10
25.01.2020 03:00:00 8,0 6,0 26 14 SW 10
25.01.2020 02:00:00 8,0 6,0 22 12 SW 10
25.01.2020 01:00:00 8,0 7,0 16 9 SW 10
25.01.2020 00:00:00 7,0 7,0 13 7 SW 10
24.01.2020 23:00:00 6,0 5,0 13 7 SW 10
24.01.2020 22:00:00 8,0 7,0 11 6 WSW 10
24.01.2020 21:00:00 7,0 6,0 13 7 SW 10
24.01.2020 20:00:00 7,0 6,0 11 6 SW 10
24.01.2020 19:00:00 8,0 7,0 16 9 WSW 10
24.01.2020 18:00:00 8,0 7,0 18 10 WSW 10
24.01.2020 17:00:00 9,0 7,0 16 9 WSW 10
24.01.2020 16:00:00 9,0 7,0 11 6 WSW 10
24.01.2020 15:00:00 9,0 7,0 21 11 WSW 10
24.01.2020 14:00:00 9,0 7,0 21 11 WSW 10
24.01.2020 13:00:00 10,0 7,0 16 9 W 10
24.01.2020 12:00:00 9,0 7,0 21 11 WSW 10
24.01.2020 11:00:00 9,0 7,0 21 11 WSW 10
24.01.2020 10:00:00 9,0 8,0 16 9 WSW 10
24.01.2020 09:00:00 8,0 7,0 21 11 SW 10
24.01.2020 08:00:00 8,0 7,0 15 8 WSW 10
24.01.2020 07:00:00 8,0 7,0 22 12 WSW 10
24.01.2020 06:00:00 7,0 6,0 21 11 WSW 10
24.01.2020 05:00:00 8,0 7,0 15 8 W 10
24.01.2020 04:00:00 7,0 7,0 28 15 WSW 10
24.01.2020 03:00:00 8,0 7,0 29 16 WSW 6
24.01.2020 02:00:00 8,0 7,0 28 15 SW 10
24.01.2020 01:00:00 7,0 7,0 31 17 SW 10
24.01.2020 00:00:00 7,0 6,0 22 12 WSW 10
23.01.2020 23:00:00 8,0 6,0 18 10 WSW 10
23.01.2020 22:00:00 8,0 7,0 22 12 WSW 10
23.01.2020 21:00:00 7,0 6,0 26 14 WSW 10
23.01.2020 20:00:00 7,0 6,0 28 15 WSW 10
23.01.2020 19:00:00 7,0 6,0 22 12 WSW 10
23.01.2020 18:00:00 8,0 6,0 26 14 WSW 10
23.01.2020 17:00:00 8,0 6,0 18 10 WSW 10
23.01.2020 16:00:00 8,0 6,0 24 13 WSW 10
23.01.2020 15:00:00 9,0 6,0 22 12 WSW 10
23.01.2020 14:00:00 9,0 6,0 26 14 WSW 10
23.01.2020 13:00:00 8,0 6,0 24 13 WSW 10
23.01.2020 12:00:00 9,0 6,0 22 12 WSW 10
23.01.2020 11:00:00 8,0 6,0 22 12 WSW 10
23.01.2020 10:00:00 8,0 6,0 24 13 WSW 10
23.01.2020 09:00:00 9,0 7,0 28 15 WSW 10
23.01.2020 08:00:00 9,0 7,0 21 11 WSW 10
23.01.2020 07:00:00 8,0 7,0 21 11 WSW 10
23.01.2020 06:00:00 7,0 6,0 21 11 SW 10
23.01.2020 05:00:00 8,0 7,0 21 11 WSW 10
23.01.2020 04:00:00 8,0 8,0 22 12 WSW 10
23.01.2020 03:00:00 9,0 8,0 21 11 WSW 10
23.01.2020 02:00:00 9,0 8,0 21 11 WSW 10
23.01.2020 01:00:00 9,0 8,0 21 11 SW 10
23.01.2020 00:00:00 9,0 9,0 15 8 WSW 10
22.01.2020 23:00:00 9,0 9,0 16 9 WSW 10
22.01.2020 22:00:00 9,0 9,0 16 9 WSW 10
22.01.2020 21:00:00 9,0 9,0 13 7 WSW 10
22.01.2020 20:00:00 9,0 9,0 15 8 WSW 9
22.01.2020 19:00:00 10,0 9,0 15 8 WSW 7
22.01.2020 18:00:00 10,0 9,0 16 9 WSW 10
22.01.2020 17:00:00 10,0 9,0 16 9 SW 10
22.01.2020 16:00:00 10,0 9,0 15 8 WSW 10
22.01.2020 15:00:00 11,0 9,0 18 10 WSW 10
22.01.2020 14:00:00 11,0 9,0 18 10 WSW 10
22.01.2020 13:00:00 11,0 9,0 16 9 WSW 10
22.01.2020 12:00:00 11,0 9,0 18 10 WSW 10
22.01.2020 11:00:00 10,0 8,0 21 11 WSW 10
22.01.2020 10:00:00 9,0 8,0 21 11 WSW 10
22.01.2020 09:00:00 9,0 8,0 22 12 WSW 10
22.01.2020 08:00:00 8,0 8,0 13 7 WSW 10
22.01.2020 07:00:00 9,0 8,0 15 8 WSW 10
22.01.2020 06:00:00 10,0 9,0 18 10 WSW 10

tt = temperature
td = dewpoint
ff = wind speed
dd = wind direction
vv = visibility

Next stations